createdAt,value
2017-12-15T00:00:30.454Z,95477.95
2017-12-15T00:01:33.376Z,95477.20
2017-12-15T00:02:36.317Z,95471.97
2017-12-15T00:03:39.605Z,95477.09
2017-12-15T00:04:42.626Z,95474.80
2017-12-15T00:05:45.602Z,95473.13
2017-12-15T00:06:48.532Z,95470.39
2017-12-15T00:07:51.486Z,95474.13
2017-12-15T00:08:55.521Z,95476.69
2017-12-15T00:09:58.733Z,95473.17
2017-12-15T00:11:01.697Z,95471.66
2017-12-15T00:12:04.650Z,95462.44
2017-12-15T00:13:07.602Z,95467.09
2017-12-15T00:14:10.524Z,95467.23
2017-12-15T00:15:13.475Z,95468.95
2017-12-15T00:16:16.810Z,95461.25
2017-12-15T00:17:19.767Z,95463.76
2017-12-15T00:18:22.730Z,95467.91
2017-12-15T00:19:25.682Z,95462.55
2017-12-15T00:20:28.633Z,95466.59
2017-12-15T00:21:31.562Z,95464.55
2017-12-15T00:22:34.585Z,95471.20
2017-12-15T00:23:37.512Z,95468.83
2017-12-15T00:24:40.473Z,95465.31
2017-12-15T00:25:43.441Z,95460.55
2017-12-15T00:26:46.379Z,95463.39
2017-12-15T00:27:49.294Z,95458.55
2017-12-15T00:28:52.913Z,95459.55
2017-12-15T00:29:55.843Z,95458.27
2017-12-15T00:30:58.803Z,95461.72
2017-12-15T00:32:01.731Z,95464.92
2017-12-15T00:33:04.712Z,95471.02
2017-12-15T00:34:07.652Z,95466.55
2017-12-15T00:35:10.897Z,95465.44
2017-12-15T00:36:13.854Z,95464.30
2017-12-15T00:37:16.792Z,95462.59
2017-12-15T00:38:19.709Z,95467.34
2017-12-15T00:39:22.646Z,95466.45
2017-12-15T00:40:25.574Z,95468.19
2017-12-15T00:41:28.798Z,95466.90
2017-12-15T00:42:31.723Z,95470.43
2017-12-15T00:43:34.680Z,95471.63
2017-12-15T00:44:37.739Z,95473.45
2017-12-15T00:45:40.708Z,95469.23
2017-12-15T00:46:43.650Z,95473.09
2017-12-15T00:47:46.903Z,95466.83
2017-12-15T00:48:49.900Z,95467.55
2017-12-15T00:49:52.873Z,95474.30
2017-12-15T00:50:55.889Z,95468.14
2017-12-15T00:51:58.818Z,95473.66
2017-12-15T00:53:01.771Z,95468.58
2017-12-15T00:54:05.007Z,95470.03
2017-12-15T00:55:07.988Z,95465.11
2017-12-15T00:56:10.994Z,95472.17
2017-12-15T00:57:13.961Z,95470.68
2017-12-15T00:58:16.923Z,95476.40
2017-12-15T00:59:19.845Z,95474.30
2017-12-15T01:00:23.120Z,95474.78
2017-12-15T01:01:26.087Z,95473.61
2017-12-15T01:02:29.045Z,95476.88
2017-12-15T01:03:32.085Z,95481.17
2017-12-15T01:04:35.069Z,95479.89
2017-12-15T01:05:38.108Z,95486.74
2017-12-15T01:06:41.430Z,95482.02
2017-12-15T01:07:44.432Z,95483.97
2017-12-15T01:08:47.419Z,95487.34
2017-12-15T01:09:50.441Z,95483.12
2017-12-15T01:10:53.394Z,95495.38
2017-12-15T01:11:56.407Z,95496.95
2017-12-15T01:12:59.704Z,95492.95
2017-12-15T01:14:02.800Z,95494.97
2017-12-15T01:15:05.791Z,95494.97
2017-12-15T01:16:08.739Z,95491.98
2017-12-15T01:17:11.741Z,95498.38
2017-12-15T01:18:14.657Z,95501.84
2017-12-15T01:19:17.852Z,95503.00
2017-12-15T01:20:20.857Z,95501.34
2017-12-15T01:21:23.849Z,95498.48
2017-12-15T01:22:26.844Z,95496.75
2017-12-15T01:23:29.833Z,95501.44
2017-12-15T01:24:32.860Z,95497.54
2017-12-15T01:25:36.099Z,95491.38
2017-12-15T01:26:38.987Z,95493.73
2017-12-15T01:27:41.897Z,95500.22
2017-12-15T01:28:44.872Z,95502.37
2017-12-15T01:29:47.929Z,95504.16
2017-12-15T01:30:50.873Z,95503.89
2017-12-15T01:31:54.090Z,95504.03
2017-12-15T01:32:57.051Z,95504.73
2017-12-15T01:34:00.050Z,95512.42
2017-12-15T01:35:03.096Z,95508.05
2017-12-15T01:36:06.005Z,95513.25
2017-12-15T01:37:08.975Z,95510.94
2017-12-15T01:38:12.209Z,95514.30
2017-12-15T01:39:15.198Z,95513.86
2017-12-15T01:40:18.186Z,95515.57
2017-12-15T01:41:21.158Z,95515.84
2017-12-15T01:42:24.005Z,95513.63
2017-12-15T01:43:26.978Z,95512.98
2017-12-15T01:44:30.108Z,95520.07
2017-12-15T01:45:32.944Z,95515.36
2017-12-15T01:46:35.875Z,95522.38
2017-12-15T01:47:38.840Z,95521.41
2017-12-15T01:48:41.840Z,95520.94
2017-12-15T01:49:44.804Z,95521.43
2017-12-15T01:50:48.012Z,95523.94
2017-12-15T01:51:50.931Z,95524.85
2017-12-15T01:52:53.877Z,95521.02
2017-12-15T01:53:56.827Z,95519.86
2017-12-15T01:54:59.834Z,95526.72
2017-12-15T01:56:02.781Z,95517.50
2017-12-15T01:57:05.766Z,95526.47
2017-12-15T01:58:08.701Z,95528.28
2017-12-15T01:59:11.630Z,95531.36
2017-12-15T02:00:14.639Z,95544.01
2017-12-15T02:01:17.571Z,95535.61
2017-12-15T02:02:20.588Z,95546.62
2017-12-15T02:03:23.813Z,95542.84
2017-12-15T02:04:26.731Z,95550.83
2017-12-15T02:05:29.751Z,95543.22
2017-12-15T02:06:32.696Z,95549.56
2017-12-15T02:07:35.746Z,95549.21
2017-12-15T02:08:38.692Z,95554.61
2017-12-15T02:09:41.929Z,95545.81
2017-12-15T02:10:44.883Z,95547.41
2017-12-15T02:11:47.850Z,95546.86
2017-12-15T02:12:50.829Z,95550.64
2017-12-15T02:13:53.751Z,95552.20
2017-12-15T02:14:56.709Z,95558.70
2017-12-15T02:15:59.980Z,95561.20
2017-12-15T02:17:02.893Z,95563.30
2017-12-15T02:18:05.837Z,95570.16
2017-12-15T02:19:08.865Z,95567.95
2017-12-15T02:20:11.814Z,95565.73
2017-12-15T02:21:14.750Z,95566.41
2017-12-15T02:22:18.068Z,95566.22
2017-12-15T02:23:20.988Z,95567.06
2017-12-15T02:24:23.909Z,95564.84
2017-12-15T02:25:26.812Z,95566.81
2017-12-15T02:26:29.854Z,95568.75
2017-12-15T02:27:32.756Z,95576.47
2017-12-15T02:28:36.017Z,95580.48
2017-12-15T02:29:38.953Z,95580.59
2017-12-15T02:30:41.888Z,95583.89
2017-12-15T02:31:44.852Z,95580.01
2017-12-15T02:32:47.700Z,95582.66
2017-12-15T02:33:50.629Z,95585.30
2017-12-15T02:34:53.860Z,95586.39
2017-12-15T02:35:56.822Z,95584.05
2017-12-15T02:36:59.714Z,95591.34
2017-12-15T02:38:02.651Z,95591.08
2017-12-15T02:39:05.596Z,95588.15
2017-12-15T02:40:08.504Z,95587.83
2017-12-15T02:41:11.727Z,95594.36
2017-12-15T02:42:14.619Z,95590.38
2017-12-15T02:43:17.570Z,95594.36
2017-12-15T02:44:20.507Z,95590.92
2017-12-15T02:45:23.456Z,95598.30
2017-12-15T02:46:26.458Z,95588.20
2017-12-15T02:47:29.678Z,95597.96
2017-12-15T02:48:32.574Z,95596.34
2017-12-15T02:49:35.465Z,95596.25
2017-12-15T02:50:38.378Z,95606.64
2017-12-15T02:51:41.305Z,95599.38
2017-12-15T02:52:44.213Z,95607.25
2017-12-15T02:53:47.364Z,95600.31
2017-12-15T02:54:50.179Z,95609.93
2017-12-15T02:55:53.011Z,95605.03
2017-12-15T02:56:55.858Z,95609.14
2017-12-15T02:57:58.670Z,95606.23
2017-12-15T02:59:01.533Z,95612.37
2017-12-15T03:00:04.686Z,95603.69
2017-12-15T03:01:07.498Z,95606.28
2017-12-15T03:02:10.325Z,95610.69
2017-12-15T03:03:13.191Z,95614.64
2017-12-15T03:04:16.010Z,95618.67
2017-12-15T03:05:18.839Z,95617.12
2017-12-15T03:06:22.090Z,95623.21
2017-12-15T03:07:25.059Z,95611.19
2017-12-15T03:08:28.000Z,95612.57
2017-12-15T03:09:30.944Z,95619.15
2017-12-15T03:10:33.933Z,95632.59
2017-12-15T03:11:36.855Z,95629.13
2017-12-15T03:12:40.077Z,95635.02
2017-12-15T03:13:43.027Z,95631.80
2017-12-15T03:14:45.961Z,95631.45
2017-12-15T03:15:48.911Z,95641.64
2017-12-15T03:16:51.833Z,95636.25
2017-12-15T03:17:54.721Z,95625.70
2017-12-15T03:18:57.894Z,95639.34
2017-12-15T03:20:00.808Z,95642.08
2017-12-15T03:21:03.720Z,95646.41
2017-12-15T03:22:07.566Z,95638.53
2017-12-15T03:23:10.492Z,95642.20
2017-12-15T03:24:13.443Z,95642.20
2017-12-15T03:25:16.642Z,95640.52
2017-12-15T03:26:19.571Z,95650.31
2017-12-15T03:27:22.534Z,95653.20
2017-12-15T03:28:25.439Z,95657.96
2017-12-15T03:29:29.187Z,95656.41
2017-12-15T03:30:32.123Z,95657.37
2017-12-15T03:31:35.697Z,95656.13
2017-12-15T03:32:38.656Z,95670.59
2017-12-15T03:33:41.544Z,95664.42
2017-12-15T03:34:45.143Z,95672.63
2017-12-15T03:35:48.641Z,95669.16
2017-12-15T03:36:51.561Z,95677.87
2017-12-15T03:37:54.946Z,95682.29
2017-12-15T03:38:58.325Z,95684.02
2017-12-15T03:40:01.659Z,95687.59
2017-12-15T03:41:05.254Z,95683.05
2017-12-15T03:42:08.953Z,95687.41
2017-12-15T03:43:11.837Z,95688.18
2017-12-15T03:44:15.178Z,95692.32
2017-12-15T03:45:18.081Z,95691.14
2017-12-15T03:46:21.029Z,95687.20
2017-12-15T03:47:23.922Z,95689.62
2017-12-15T03:48:26.748Z,95690.87
2017-12-15T03:49:29.605Z,95687.80
2017-12-15T03:50:32.767Z,95692.86
2017-12-15T03:51:35.638Z,95690.20
2017-12-15T03:52:38.555Z,95688.77
2017-12-15T03:53:41.506Z,95691.19
2017-12-15T03:54:44.411Z,95696.69
2017-12-15T03:55:47.342Z,95694.76
2017-12-15T03:56:50.709Z,95695.98
2017-12-15T03:57:53.677Z,95693.09
2017-12-15T03:58:56.647Z,95698.05
2017-12-15T04:00:00.539Z,95692.27
2017-12-15T04:01:03.467Z,95703.38
2017-12-15T04:02:06.432Z,95694.16
2017-12-15T04:03:09.851Z,95699.99
2017-12-15T04:04:12.791Z,95697.08
2017-12-15T04:05:15.707Z,95705.37
2017-12-15T04:06:18.623Z,95701.08
2017-12-15T04:07:21.542Z,95705.92
2017-12-15T04:08:24.473Z,95711.43
2017-12-15T04:09:27.881Z,95707.27
2017-12-15T04:10:30.746Z,95709.61
2017-12-15T04:11:33.576Z,95707.02
2017-12-15T04:12:36.530Z,95711.33
2017-12-15T04:13:39.451Z,95713.25
2017-12-15T04:14:42.419Z,95711.20
2017-12-15T04:15:45.735Z,95710.63
2017-12-15T04:16:48.717Z,95709.77
2017-12-15T04:17:51.694Z,95713.93
2017-12-15T04:18:54.662Z,95713.55
2017-12-15T04:19:57.708Z,95713.86
2017-12-15T04:21:00.681Z,95713.32
2017-12-15T04:22:03.996Z,95717.59
2017-12-15T04:23:07.040Z,95713.86
2017-12-15T04:24:09.999Z,95711.06
2017-12-15T04:25:13.369Z,95710.73
2017-12-15T04:26:16.326Z,95710.94
2017-12-15T04:27:19.301Z,95722.10
2017-12-15T04:28:22.561Z,95715.41
2017-12-15T04:29:25.549Z,95720.91
2017-12-15T04:30:28.501Z,95721.83
2017-12-15T04:31:31.487Z,95722.33
2017-12-15T04:32:37.466Z,95722.11
2017-12-15T04:33:40.374Z,95721.91
2017-12-15T04:34:43.325Z,95721.50
2017-12-15T04:35:46.215Z,95732.53
2017-12-15T04:36:50.070Z,95735.64
2017-12-15T04:37:52.945Z,95742.22
2017-12-15T04:38:55.814Z,95745.97
2017-12-15T04:39:59.125Z,95743.90
2017-12-15T04:41:02.019Z,95755.66
2017-12-15T04:42:04.990Z,95749.91
2017-12-15T04:43:07.936Z,95749.37
2017-12-15T04:44:10.905Z,95752.48
2017-12-15T04:45:13.815Z,95747.98
2017-12-15T04:46:16.744Z,95749.51
2017-12-15T04:47:19.658Z,95753.97
2017-12-15T04:48:22.561Z,95750.89
2017-12-15T04:49:25.499Z,95754.63
2017-12-15T04:50:28.525Z,95749.56
2017-12-15T04:51:31.492Z,95753.31
2017-12-15T04:52:34.385Z,95751.31
2017-12-15T04:53:37.336Z,95748.48
2017-12-15T04:54:40.301Z,95751.95
2017-12-15T04:55:43.279Z,95751.41
2017-12-15T04:56:46.542Z,95754.70
2017-12-15T04:57:49.470Z,95759.28
2017-12-15T04:58:52.405Z,95753.26
2017-12-15T04:59:55.337Z,95758.05
2017-12-15T05:00:58.281Z,95756.08
2017-12-15T05:02:01.223Z,95755.84
2017-12-15T05:03:04.617Z,95756.76
2017-12-15T05:04:07.583Z,95758.78
2017-12-15T05:05:11.747Z,95756.92
2017-12-15T05:06:14.674Z,95755.61
2017-12-15T05:07:17.600Z,95750.95
2017-12-15T05:08:20.543Z,95759.32
2017-12-15T05:09:23.918Z,95757.93
2017-12-15T05:10:26.975Z,95757.20
2017-12-15T05:11:29.961Z,95757.39
2017-12-15T05:12:32.913Z,95759.41
2017-12-15T05:13:36.133Z,95758.64
2017-12-15T05:14:39.084Z,95762.34
2017-12-15T05:15:42.835Z,95759.94
2017-12-15T05:16:45.881Z,95764.20
2017-12-15T05:17:48.869Z,95770.56
2017-12-15T05:18:51.851Z,95764.34
2017-12-15T05:19:54.857Z,95770.02
2017-12-15T05:20:57.924Z,95767.45
2017-12-15T05:22:01.319Z,95766.36
2017-12-15T05:23:04.276Z,95771.95
2017-12-15T05:24:07.333Z,95771.67
2017-12-15T05:25:10.299Z,95772.31
2017-12-15T05:26:13.331Z,95770.89
2017-12-15T05:27:16.320Z,95773.16
2017-12-15T05:28:19.736Z,95768.77
2017-12-15T05:29:22.749Z,95770.89
2017-12-15T05:30:25.725Z,95770.66
2017-12-15T05:31:28.663Z,95767.83
2017-12-15T05:32:31.613Z,95778.09
2017-12-15T05:33:34.525Z,95776.89
2017-12-15T05:34:37.962Z,95779.13
2017-12-15T05:35:40.992Z,95772.59
2017-12-15T05:36:43.848Z,95773.61
2017-12-15T05:37:46.818Z,95778.44
2017-12-15T05:38:49.693Z,95773.63
2017-12-15T05:39:52.609Z,95773.15
2017-12-15T05:40:56.069Z,95769.56
2017-12-15T05:41:58.957Z,95773.31
2017-12-15T05:43:02.234Z,95772.77
2017-12-15T05:44:05.171Z,95772.54
2017-12-15T05:45:08.146Z,95774.11
2017-12-15T05:46:11.127Z,95767.47
2017-12-15T05:47:14.554Z,95769.13
2017-12-15T05:48:17.639Z,95778.53
2017-12-15T05:49:20.611Z,95775.30
2017-12-15T05:50:23.649Z,95775.67
2017-12-15T05:51:26.504Z,95777.58
2017-12-15T05:52:29.836Z,95776.10
2017-12-15T05:53:32.980Z,95782.89
2017-12-15T05:54:35.786Z,95783.39
2017-12-15T05:55:38.612Z,95783.52
2017-12-15T05:56:41.456Z,95783.47
2017-12-15T05:57:44.280Z,95778.40
2017-12-15T05:58:47.208Z,95779.08
2017-12-15T05:59:50.504Z,95777.94
2017-12-15T06:00:53.491Z,95780.86
2017-12-15T06:01:56.419Z,95775.23
2017-12-15T06:02:59.505Z,95776.70
2017-12-15T06:04:02.443Z,95779.35
2017-12-15T06:05:05.463Z,95770.12
2017-12-15T06:06:08.718Z,95772.44
2017-12-15T06:07:11.700Z,95774.33
2017-12-15T06:08:14.663Z,95767.89
2017-12-15T06:09:17.684Z,95773.34
2017-12-15T06:10:20.672Z,95780.75
2017-12-15T06:11:23.612Z,95776.55
2017-12-15T06:12:26.838Z,95777.79
2017-12-15T06:13:29.825Z,95778.84
2017-12-15T06:14:32.807Z,95783.59
2017-12-15T06:15:36.062Z,95775.66
2017-12-15T06:16:39.087Z,95775.82
2017-12-15T06:17:42.080Z,95780.09
2017-12-15T06:18:45.433Z,95780.63
2017-12-15T06:19:48.422Z,95778.81
2017-12-15T06:20:51.413Z,95786.31
2017-12-15T06:21:54.350Z,95788.86
2017-12-15T06:22:57.347Z,95787.22
2017-12-15T06:24:00.340Z,95791.20
2017-12-15T06:25:03.293Z,95790.39
2017-12-15T06:26:06.274Z,95791.61
2017-12-15T06:27:09.307Z,95795.17
2017-12-15T06:28:12.260Z,95795.13
2017-12-15T06:29:15.272Z,95799.80
2017-12-15T06:30:18.545Z,95795.58
2017-12-15T06:31:21.480Z,95803.03
2017-12-15T06:32:24.441Z,95801.59
2017-12-15T06:33:27.451Z,95797.31
2017-12-15T06:34:30.523Z,95799.27
2017-12-15T06:35:33.515Z,95798.92
2017-12-15T06:36:36.850Z,95804.08
2017-12-15T06:37:39.862Z,95807.52
2017-12-15T06:38:42.876Z,95808.12
2017-12-15T06:39:45.876Z,95810.43
2017-12-15T06:40:48.847Z,95816.78
2017-12-15T06:41:51.781Z,95819.02
2017-12-15T06:42:55.069Z,95816.97
2017-12-15T06:43:58.033Z,95820.80
2017-12-15T06:45:01.009Z,95824.40
2017-12-15T06:46:03.990Z,95826.93
2017-12-15T06:47:07.035Z,95833.38
2017-12-15T06:48:10.904Z,95837.76
2017-12-15T06:49:14.168Z,95837.86
2017-12-15T06:50:17.131Z,95841.17
2017-12-15T06:51:20.145Z,95837.84
2017-12-15T06:52:23.121Z,95838.83
2017-12-15T06:53:26.137Z,95841.86
2017-12-15T06:54:29.136Z,95844.98
2017-12-15T06:55:32.476Z,95850.50
2017-12-15T06:56:35.484Z,95840.89
2017-12-15T06:57:38.464Z,95844.42
2017-12-15T06:58:41.455Z,95845.69
2017-12-15T06:59:44.479Z,95850.30
2017-12-15T07:00:47.462Z,95849.72
2017-12-15T07:01:50.937Z,95846.95
2017-12-15T07:02:53.959Z,95849.77
2017-12-15T07:03:56.961Z,95850.95
2017-12-15T07:04:59.966Z,95845.84
2017-12-15T07:06:03.023Z,95853.01
2017-12-15T07:07:07.176Z,95851.70
2017-12-15T07:08:10.578Z,95854.81
2017-12-15T07:09:13.495Z,95853.80
2017-12-15T07:10:16.354Z,95855.66
2017-12-15T07:11:19.256Z,95851.30
2017-12-15T07:12:22.106Z,95849.67
2017-12-15T07:13:24.977Z,95849.50
2017-12-15T07:14:28.197Z,95849.72
2017-12-15T07:15:31.111Z,95847.25
2017-12-15T07:16:33.984Z,95850.02
2017-12-15T07:17:36.916Z,95849.27
2017-12-15T07:18:39.760Z,95846.63
2017-12-15T07:19:42.770Z,95852.69
2017-12-15T07:20:46.115Z,95856.65
2017-12-15T07:21:49.124Z,95859.81
2017-12-15T07:22:52.698Z,95850.19
2017-12-15T07:23:55.653Z,95860.81
2017-12-15T07:24:58.677Z,95857.64
2017-12-15T07:26:01.771Z,95859.02
2017-12-15T07:27:05.204Z,95861.33
2017-12-15T07:28:08.209Z,95861.12
2017-12-15T07:29:11.236Z,95854.99
2017-12-15T07:30:14.252Z,95857.89
2017-12-15T07:31:17.212Z,95858.52
2017-12-15T07:32:20.224Z,95861.87
2017-12-15T07:33:23.717Z,95866.38
2017-12-15T07:34:26.825Z,95869.34
2017-12-15T07:35:29.796Z,95866.88
2017-12-15T07:36:32.883Z,95869.91
2017-12-15T07:37:35.958Z,95871.28
2017-12-15T07:38:39.038Z,95873.21
2017-12-15T07:39:42.397Z,95873.94
2017-12-15T07:40:45.427Z,95868.66
2017-12-15T07:41:48.373Z,95873.22
2017-12-15T07:42:51.348Z,95872.45
2017-12-15T07:43:54.286Z,95873.17
2017-12-15T07:44:57.173Z,95876.42
2017-12-15T07:46:00.618Z,95878.07
2017-12-15T07:47:03.541Z,95873.55
2017-12-15T07:48:06.494Z,95878.27
2017-12-15T07:49:09.488Z,95876.87
2017-12-15T07:50:12.551Z,95881.73
2017-12-15T07:51:15.755Z,95883.96
2017-12-15T07:52:18.766Z,95884.98
2017-12-15T07:53:21.772Z,95892.81
2017-12-15T07:54:25.471Z,95891.30
2017-12-15T07:55:28.533Z,95891.64
2017-12-15T07:56:31.548Z,95910.19
2017-12-15T07:57:34.837Z,95898.23
2017-12-15T07:58:37.896Z,95900.81
2017-12-15T07:59:40.869Z,95903.80
2017-12-15T08:00:43.886Z,95905.09
2017-12-15T08:01:46.944Z,95909.05
2017-12-15T08:02:49.959Z,95912.17
2017-12-15T08:03:53.380Z,95912.93
2017-12-15T08:04:56.402Z,95912.12
2017-12-15T08:05:59.319Z,95921.03
2017-12-15T08:07:02.231Z,95916.42
2017-12-15T08:08:05.118Z,95917.84
2017-12-15T08:09:08.096Z,95919.20
2017-12-15T08:10:11.475Z,95928.48
2017-12-15T08:11:14.509Z,95927.77
2017-12-15T08:12:17.511Z,95930.63
2017-12-15T08:13:20.516Z,95929.78
2017-12-15T08:14:23.484Z,95932.27
2017-12-15T08:15:26.474Z,95936.03
2017-12-15T08:16:29.488Z,95933.05
2017-12-15T08:17:32.464Z,95932.41
2017-12-15T08:18:35.450Z,95932.84
2017-12-15T08:19:38.368Z,95930.42
2017-12-15T08:20:41.331Z,95935.53
2017-12-15T08:21:44.318Z,95935.82
2017-12-15T08:22:47.585Z,95937.69
2017-12-15T08:23:50.580Z,95935.19
2017-12-15T08:24:53.519Z,95944.12
2017-12-15T08:25:56.511Z,95940.84
2017-12-15T08:26:59.534Z,95943.80
2017-12-15T08:28:02.472Z,95946.06
2017-12-15T08:29:05.502Z,95952.65
2017-12-15T08:30:08.430Z,95946.95
2017-12-15T08:31:11.411Z,95945.64
2017-12-15T08:32:14.415Z,95949.32
2017-12-15T08:33:17.421Z,95948.39
2017-12-15T08:34:20.809Z,95954.00
2017-12-15T08:35:23.773Z,95952.65
2017-12-15T08:36:26.729Z,95952.19
2017-12-15T08:37:29.704Z,95951.44
2017-12-15T08:38:32.618Z,95952.16
2017-12-15T08:39:35.560Z,95948.61
2017-12-15T08:40:38.519Z,95949.23
2017-12-15T08:41:41.477Z,95952.01
2017-12-15T08:42:44.430Z,95952.11
2017-12-15T08:43:47.416Z,95950.16
2017-12-15T08:44:50.330Z,95948.17
2017-12-15T08:45:53.667Z,95953.45
2017-12-15T08:46:56.722Z,95958.44
2017-12-15T08:47:59.800Z,95953.57
2017-12-15T08:49:02.722Z,95949.28
2017-12-15T08:50:05.931Z,95953.37
2017-12-15T08:51:08.917Z,95954.97
2017-12-15T08:52:12.469Z,95951.42
2017-12-15T08:53:15.414Z,95946.32
2017-12-15T08:54:18.442Z,95949.35
2017-12-15T08:55:21.417Z,95956.06
2017-12-15T08:56:24.391Z,95960.37
2017-12-15T08:57:27.329Z,95958.97
2017-12-15T08:58:30.599Z,95963.32
2017-12-15T08:59:33.569Z,95967.41
2017-12-15T09:00:36.519Z,95968.03
2017-12-15T09:01:39.478Z,95973.28
2017-12-15T09:02:42.440Z,95976.01
2017-12-15T09:03:45.572Z,95973.48
2017-12-15T09:04:49.075Z,95975.34
2017-12-15T09:05:52.049Z,95978.25
2017-12-15T09:06:55.006Z,95982.13
2017-12-15T09:07:57.990Z,95984.66
2017-12-15T09:09:00.962Z,95983.39
2017-12-15T09:10:03.971Z,95985.67
2017-12-15T09:11:07.096Z,95987.53
2017-12-15T09:12:10.071Z,95985.08
2017-12-15T09:13:13.008Z,95984.16
2017-12-15T09:14:15.978Z,95983.19
2017-12-15T09:15:18.856Z,95984.87
2017-12-15T09:16:22.196Z,95985.63
2017-12-15T09:17:25.177Z,95984.86
2017-12-15T09:18:28.178Z,95977.89
2017-12-15T09:19:31.169Z,95979.36
2017-12-15T09:20:34.066Z,95977.24
2017-12-15T09:21:36.985Z,95975.22
2017-12-15T09:22:40.603Z,95973.09
2017-12-15T09:23:45.168Z,95973.31
2017-12-15T09:24:48.247Z,95974.61
2017-12-15T09:25:51.180Z,95978.78
2017-12-15T09:26:54.145Z,95974.43
2017-12-15T09:27:57.111Z,95977.18
2017-12-15T09:29:00.550Z,95974.28
2017-12-15T09:30:03.517Z,95981.20
2017-12-15T09:31:06.458Z,95982.77
2017-12-15T09:32:09.462Z,95984.08
2017-12-15T09:34:32.038Z,95989.05
2017-12-15T09:35:35.326Z,95990.33
2017-12-15T09:36:38.303Z,95989.73
2017-12-15T09:37:41.167Z,95989.69
2017-12-15T09:38:44.053Z,95995.68
2017-12-15T09:39:46.932Z,96001.88
2017-12-15T09:40:50.084Z,96002.20
2017-12-15T09:41:53.033Z,96001.88
2017-12-15T09:42:56.160Z,96002.09
2017-12-15T09:43:59.140Z,96004.45
2017-12-15T09:45:02.139Z,96003.31
2017-12-15T09:46:05.169Z,96004.66
2017-12-15T09:47:09.099Z,96002.80
2017-12-15T09:48:12.075Z,96003.83
2017-12-15T09:49:15.054Z,96006.19
2017-12-15T09:50:18.088Z,96001.59
2017-12-15T09:51:21.086Z,96001.08
2017-12-15T09:52:23.997Z,96005.89
2017-12-15T09:53:27.244Z,96006.53
2017-12-15T09:54:30.238Z,96008.25
2017-12-15T09:55:33.220Z,96002.98
2017-12-15T09:56:37.167Z,96005.59
2017-12-15T09:57:40.669Z,96005.46
2017-12-15T09:58:43.728Z,96009.09
2017-12-15T09:59:47.078Z,96009.09
2017-12-15T10:00:50.132Z,96005.55
2017-12-15T10:01:53.131Z,96006.02
2017-12-15T10:02:56.662Z,96004.41
2017-12-15T10:03:59.632Z,96011.12
2017-12-15T10:05:02.611Z,96006.86
2017-12-15T10:06:05.607Z,96003.23
2017-12-15T10:07:08.761Z,96003.14
2017-12-15T10:08:11.756Z,96005.89
2017-12-15T10:09:14.707Z,96005.08
2017-12-15T10:10:18.272Z,96002.34
2017-12-15T10:11:21.573Z,95999.81
2017-12-15T10:12:24.545Z,96002.84
2017-12-15T10:13:27.517Z,95999.76
2017-12-15T10:14:30.522Z,96005.20
2017-12-15T10:15:33.489Z,95998.67
2017-12-15T10:16:36.472Z,96000.23
2017-12-15T10:17:39.879Z,95996.68
2017-12-15T10:18:42.882Z,95997.05
2017-12-15T10:19:45.924Z,96004.02
2017-12-15T10:20:48.910Z,95994.28
2017-12-15T10:21:51.888Z,95991.00
2017-12-15T10:22:54.827Z,95993.08
2017-12-15T10:23:58.135Z,95996.97
2017-12-15T10:25:01.145Z,95995.45
2017-12-15T10:26:04.118Z,95992.91
2017-12-15T10:27:08.256Z,95992.37
2017-12-15T10:28:11.216Z,95988.38
2017-12-15T10:29:14.172Z,95992.37
2017-12-15T10:30:17.523Z,95992.86
2017-12-15T10:31:20.553Z,95994.98
2017-12-15T10:32:24.201Z,95995.16
2017-12-15T10:33:27.227Z,95989.45
2017-12-15T10:34:30.954Z,95986.44
2017-12-15T10:35:33.957Z,95988.23
2017-12-15T10:36:37.253Z,95987.45
2017-12-15T10:37:40.349Z,95986.55
2017-12-15T10:38:43.304Z,95986.85
2017-12-15T10:39:46.424Z,95992.05
2017-12-15T10:40:49.553Z,95991.66
2017-12-15T10:41:52.575Z,95993.41
2017-12-15T10:42:56.035Z,95997.95
2017-12-15T10:43:59.194Z,95991.45
2017-12-15T10:45:02.210Z,95993.56
2017-12-15T10:46:05.298Z,95997.13
2017-12-15T10:47:08.359Z,95993.81
2017-12-15T10:48:11.391Z,95995.41
2017-12-15T10:49:16.358Z,96003.91
2017-12-15T10:50:19.388Z,95993.79
2017-12-15T10:51:22.329Z,95997.92
2017-12-15T10:52:25.327Z,95997.00
2017-12-15T10:53:28.288Z,95994.63
2017-12-15T10:54:31.261Z,95992.46
2017-12-15T10:55:34.550Z,95992.66
2017-12-15T10:56:37.756Z,95993.22
2017-12-15T10:57:40.829Z,95987.48
2017-12-15T10:58:43.833Z,95992.35
2017-12-15T10:59:46.837Z,95992.25
2017-12-15T11:00:49.828Z,95992.35
2017-12-15T11:01:55.094Z,95989.00
2017-12-15T11:02:58.664Z,95995.70
2017-12-15T11:04:01.709Z,95994.20
2017-12-15T11:05:04.755Z,95994.01
2017-12-15T11:06:07.831Z,96001.64
2017-12-15T11:07:11.643Z,95996.69
2017-12-15T11:08:14.969Z,95993.38
2017-12-15T11:09:18.038Z,95996.25
2017-12-15T11:10:21.984Z,95997.31
2017-12-15T11:11:24.899Z,95999.42
2017-12-15T11:12:28.060Z,95992.11
2017-12-15T11:13:31.070Z,95986.11
2017-12-15T11:14:34.404Z,95991.57
2017-12-15T11:15:37.376Z,95991.44
2017-12-15T11:16:40.374Z,95994.33
2017-12-15T11:17:43.359Z,95993.35
2017-12-15T11:18:46.363Z,95996.34
2017-12-15T11:19:49.358Z,95993.19
2017-12-15T11:20:52.315Z,95991.09
2017-12-15T11:21:55.296Z,95992.92
2017-12-15T11:22:58.230Z,95995.61
2017-12-15T11:24:01.188Z,95994.17
2017-12-15T11:25:04.187Z,95997.23
2017-12-15T11:26:07.157Z,96002.39
2017-12-15T11:27:10.212Z,95989.34
2017-12-15T11:28:13.166Z,95999.36
2017-12-15T11:29:16.225Z,95990.70
2017-12-15T11:30:19.155Z,95989.24
2017-12-15T11:31:22.134Z,95990.23
2017-12-15T11:32:25.619Z,95989.84
2017-12-15T11:33:28.676Z,95994.64
2017-12-15T11:34:31.665Z,95980.92
2017-12-15T11:35:34.725Z,95984.53
2017-12-15T11:36:37.687Z,95982.91
2017-12-15T11:37:40.663Z,95977.92
2017-12-15T11:38:43.994Z,95981.50
2017-12-15T11:39:46.940Z,95976.36
2017-12-15T11:40:49.911Z,95974.20
2017-12-15T11:41:52.901Z,95977.56
2017-12-15T11:42:55.810Z,95974.81
2017-12-15T11:43:58.825Z,95974.48
2017-12-15T11:45:02.719Z,95975.22
2017-12-15T11:46:05.738Z,95974.84
2017-12-15T11:47:08.859Z,95976.23
2017-12-15T11:48:11.918Z,95977.29
2017-12-15T11:49:14.901Z,95973.19
2017-12-15T11:50:17.991Z,95970.61
2017-12-15T11:51:21.264Z,95975.80
2017-12-15T11:52:24.341Z,95975.73
2017-12-15T11:53:27.425Z,95976.42
2017-12-15T11:54:30.470Z,95974.06
2017-12-15T11:55:33.667Z,95968.53
2017-12-15T11:56:36.577Z,95965.92
2017-12-15T11:57:39.988Z,95970.59
2017-12-15T11:58:42.937Z,95965.38
2017-12-15T11:59:46.044Z,95970.61
2017-12-15T12:00:49.004Z,95969.92
2017-12-15T12:01:52.001Z,95971.50
2017-12-15T12:02:54.954Z,95972.27
2017-12-15T12:03:58.453Z,95971.10
2017-12-15T12:05:01.402Z,95967.95
2017-12-15T12:06:04.306Z,95977.31
2017-12-15T12:07:07.223Z,95974.61
2017-12-15T12:08:10.091Z,95977.51
2017-12-15T12:09:13.050Z,95977.51
2017-12-15T12:10:16.530Z,95972.45
2017-12-15T12:11:19.542Z,95980.00
2017-12-15T12:12:23.198Z,95971.25
2017-12-15T12:13:26.361Z,95975.54
2017-12-15T12:14:29.370Z,95974.52
2017-12-15T12:15:32.266Z,95974.30
2017-12-15T12:16:35.466Z,95984.42
2017-12-15T12:17:38.453Z,95974.41
2017-12-15T12:18:41.422Z,95978.23
2017-12-15T12:19:44.389Z,95977.84
2017-12-15T12:20:47.382Z,95977.15
2017-12-15T12:21:50.306Z,95975.45